sensor_id;sensor_type;location;lat;lon;timestamp;P1;durP1;ratioP1;P2;durP2;ratioP2
8331;SDS011;4203;48.144;14.118;2023-01-29T00:00:20;33.53;;;20.20;;
8331;SDS011;4203;48.144;14.118;2023-01-29T00:02:49;40.17;;;21.43;;
8331;SDS011;4203;48.144;14.118;2023-01-29T00:05:16;33.90;;;20.43;;
8331;SDS011;4203;48.144;14.118;2023-01-29T00:07:43;34.70;;;20.47;;
8331;SDS011;4203;48.144;14.118;2023-01-29T00:10:10;35.30;;;21.37;;
8331;SDS011;4203;48.144;14.118;2023-01-29T00:12:37;31.17;;;20.13;;
8331;SDS011;4203;48.144;14.118;2023-01-29T00:15:05;32.27;;;21.00;;
8331;SDS011;4203;48.144;14.118;2023-01-29T00:17:33;31.47;;;20.10;;
8331;SDS011;4203;48.144;14.118;2023-01-29T00:20:02;28.83;;;19.13;;
8331;SDS011;4203;48.144;14.118;2023-01-29T00:22:29;33.07;;;19.97;;
8331;SDS011;4203;48.144;14.118;2023-01-29T00:24:56;30.50;;;19.30;;
8331;SDS011;4203;48.144;14.118;2023-01-29T00:27:24;32.37;;;19.60;;
8331;SDS011;4203;48.144;14.118;2023-01-29T00:29:51;30.73;;;18.83;;
8331;SDS011;4203;48.144;14.118;2023-01-29T00:32:31;33.00;;;19.50;;
8331;SDS011;4203;48.144;14.118;2023-01-29T00:34:59;32.63;;;20.27;;
8331;SDS011;4203;48.144;14.118;2023-01-29T00:37:27;34.00;;;20.77;;
8331;SDS011;4203;48.144;14.118;2023-01-29T00:39:54;30.40;;;19.87;;
8331;SDS011;4203;48.144;14.118;2023-01-29T00:42:24;33.33;;;20.77;;
8331;SDS011;4203;48.144;14.118;2023-01-29T00:45:10;33.60;;;19.90;;
8331;SDS011;4203;48.144;14.118;2023-01-29T00:47:38;34.53;;;20.93;;
8331;SDS011;4203;48.144;14.118;2023-01-29T00:50:06;31.57;;;19.30;;
8331;SDS011;4203;48.144;14.118;2023-01-29T00:52:37;30.53;;;18.77;;
8331;SDS011;4203;48.144;14.118;2023-01-29T00:55:06;28.37;;;18.07;;
8331;SDS011;4203;48.144;14.118;2023-01-29T00:57:35;31.60;;;20.00;;
8331;SDS011;4203;48.144;14.118;2023-01-29T01:00:04;29.07;;;17.83;;
8331;SDS011;4203;48.144;14.118;2023-01-29T01:02:32;33.50;;;20.50;;
8331;SDS011;4203;48.144;14.118;2023-01-29T01:05:17;31.70;;;18.67;;
8331;SDS011;4203;48.144;14.118;2023-01-29T01:07:47;32.40;;;19.33;;
8331;SDS011;4203;48.144;14.118;2023-01-29T01:10:16;29.97;;;18.30;;
8331;SDS011;4203;48.144;14.118;2023-01-29T01:12:47;31.23;;;18.50;;
8331;SDS011;4203;48.144;14.118;2023-01-29T01:15:16;30.73;;;19.83;;
8331;SDS011;4203;48.144;14.118;2023-01-29T01:17:44;34.80;;;20.00;;
8331;SDS011;4203;48.144;14.118;2023-01-29T01:20:13;27.23;;;18.20;;
8331;SDS011;4203;48.144;14.118;2023-01-29T01:22:40;34.77;;;19.57;;
8331;SDS011;4203;48.144;14.118;2023-01-29T01:25:09;31.47;;;19.27;;
8331;SDS011;4203;48.144;14.118;2023-01-29T01:27:36;32.83;;;19.17;;
8331;SDS011;4203;48.144;14.118;2023-01-29T01:30:07;35.30;;;20.30;;
8331;SDS011;4203;48.144;14.118;2023-01-29T01:32:36;33.93;;;18.90;;
8331;SDS011;4203;48.144;14.118;2023-01-29T01:35:04;29.30;;;18.23;;
8331;SDS011;4203;48.144;14.118;2023-01-29T01:37:32;33.10;;;18.97;;
8331;SDS011;4203;48.144;14.118;2023-01-29T01:40:02;31.23;;;19.73;;
8331;SDS011;4203;48.144;14.118;2023-01-29T01:42:31;30.53;;;19.27;;
8331;SDS011;4203;48.144;14.118;2023-01-29T01:44:59;37.77;;;20.60;;
8331;SDS011;4203;48.144;14.118;2023-01-29T01:47:31;32.17;;;19.87;;
8331;SDS011;4203;48.144;14.118;2023-01-29T01:50:05;32.37;;;20.10;;
8331;SDS011;4203;48.144;14.118;2023-01-29T01:52:35;33.37;;;20.63;;
8331;SDS011;4203;48.144;14.118;2023-01-29T01:55:07;30.93;;;20.33;;
8331;SDS011;4203;48.144;14.118;2023-01-29T01:57:38;28.57;;;17.70;;
8331;SDS011;4203;48.144;14.118;2023-01-29T02:00:10;36.60;;;21.17;;
8331;SDS011;4203;48.144;14.118;2023-01-29T02:02:42;33.53;;;20.37;;
8331;SDS011;4203;48.144;14.118;2023-01-29T02:05:28;35.10;;;22.20;;
8331;SDS011;4203;48.144;14.118;2023-01-29T02:08:14;36.73;;;21.53;;
8331;SDS011;4203;48.144;14.118;2023-01-29T02:11:06;35.73;;;21.53;;
8331;SDS011;4203;48.144;14.118;2023-01-29T02:13:35;33.47;;;21.20;;
8331;SDS011;4203;48.144;14.118;2023-01-29T02:16:02;37.57;;;22.13;;
8331;SDS011;4203;48.144;14.118;2023-01-29T02:18:30;39.57;;;24.13;;
8331;SDS011;4203;48.144;14.118;2023-01-29T02:21:16;38.23;;;23.10;;
8331;SDS011;4203;48.144;14.118;2023-01-29T02:24:10;36.73;;;22.57;;
8331;SDS011;4203;48.144;14.118;2023-01-29T02:27:05;38.77;;;24.00;;
8331;SDS011;4203;48.144;14.118;2023-01-29T02:29:38;41.53;;;24.03;;
8331;SDS011;4203;48.144;14.118;2023-01-29T02:32:20;38.80;;;21.93;;
8331;SDS011;4203;48.144;14.118;2023-01-29T02:34:55;39.10;;;22.90;;
8331;SDS011;4203;48.144;14.118;2023-01-29T02:37:51;36.03;;;22.20;;
8331;SDS011;4203;48.144;14.118;2023-01-29T02:40:28;40.93;;;24.43;;
8331;SDS011;4203;48.144;14.118;2023-01-29T02:43:02;38.13;;;23.17;;
8331;SDS011;4203;48.144;14.118;2023-01-29T02:45:40;36.37;;;22.33;;
8331;SDS011;4203;48.144;14.118;2023-01-29T02:48:13;38.83;;;24.10;;
8331;SDS011;4203;48.144;14.118;2023-01-29T02:50:45;38.37;;;22.67;;
8331;SDS011;4203;48.144;14.118;2023-01-29T02:53:19;37.53;;;21.50;;
8331;SDS011;4203;48.144;14.118;2023-01-29T02:55:52;37.97;;;22.90;;
8331;SDS011;4203;48.144;14.118;2023-01-29T02:58:24;39.50;;;23.07;;
8331;SDS011;4203;48.144;14.118;2023-01-29T03:01:02;41.07;;;23.43;;
8331;SDS011;4203;48.144;14.118;2023-01-29T03:03:35;41.77;;;22.73;;
8331;SDS011;4203;48.144;14.118;2023-01-29T03:06:06;38.50;;;21.90;;
8331;SDS011;4203;48.144;14.118;2023-01-29T03:08:45;39.67;;;22.63;;
8331;SDS011;4203;48.144;14.118;2023-01-29T03:11:18;36.93;;;22.00;;
8331;SDS011;4203;48.144;14.118;2023-01-29T03:13:47;37.10;;;22.10;;
8331;SDS011;4203;48.144;14.118;2023-01-29T03:16:20;35.47;;;21.30;;
8331;SDS011;4203;48.144;14.118;2023-01-29T03:18:53;42.30;;;23.43;;
8331;SDS011;4203;48.144;14.118;2023-01-29T03:21:24;36.97;;;21.77;;
8331;SDS011;4203;48.144;14.118;2023-01-29T03:24:14;38.00;;;22.03;;
8331;SDS011;4203;48.144;14.118;2023-01-29T03:27:02;39.83;;;22.83;;
8331;SDS011;4203;48.144;14.118;2023-01-29T03:29:50;35.80;;;21.60;;
8331;SDS011;4203;48.144;14.118;2023-01-29T03:32:40;37.53;;;21.87;;
8331;SDS011;4203;48.144;14.118;2023-01-29T03:35:08;36.73;;;22.07;;
8331;SDS011;4203;48.144;14.118;2023-01-29T03:37:38;39.87;;;23.00;;
8331;SDS011;4203;48.144;14.118;2023-01-29T03:40:17;43.17;;;23.90;;
8331;SDS011;4203;48.144;14.118;2023-01-29T03:42:48;40.23;;;21.73;;
8331;SDS011;4203;48.144;14.118;2023-01-29T03:45:25;39.10;;;22.57;;
8331;SDS011;4203;48.144;14.118;2023-01-29T03:48:01;38.63;;;23.07;;
8331;SDS011;4203;48.144;14.118;2023-01-29T03:50:36;39.97;;;23.63;;
8331;SDS011;4203;48.144;14.118;2023-01-29T03:53:08;40.90;;;22.60;;
8331;SDS011;4203;48.144;14.118;2023-01-29T03:55:45;40.23;;;22.57;;
8331;SDS011;4203;48.144;14.118;2023-01-29T03:58:22;44.70;;;23.83;;
8331;SDS011;4203;48.144;14.118;2023-01-29T04:00:55;44.53;;;23.30;;
8331;SDS011;4203;48.144;14.118;2023-01-29T04:03:30;45.57;;;24.30;;
8331;SDS011;4203;48.144;14.118;2023-01-29T04:06:02;39.60;;;22.83;;
8331;SDS011;4203;48.144;14.118;2023-01-29T04:08:35;48.70;;;24.03;;
8331;SDS011;4203;48.144;14.118;2023-01-29T04:11:11;38.57;;;22.23;;
8331;SDS011;4203;48.144;14.118;2023-01-29T04:13:42;39.40;;;22.03;;
8331;SDS011;4203;48.144;14.118;2023-01-29T04:16:11;43.00;;;22.27;;
8331;SDS011;4203;48.144;14.118;2023-01-29T04:18:45;38.77;;;22.10;;
8331;SDS011;4203;48.144;14.118;2023-01-29T04:21:15;38.00;;;21.47;;
8331;SDS011;4203;48.144;14.118;2023-01-29T04:23:43;37.00;;;21.50;;
8331;SDS011;4203;48.144;14.118;2023-01-29T04:26:20;34.13;;;20.53;;
8331;SDS011;4203;48.144;14.118;2023-01-29T04:28:58;30.27;;;18.87;;
8331;SDS011;4203;48.144;14.118;2023-01-29T04:31:42;30.07;;;16.90;;
8331;SDS011;4203;48.144;14.118;2023-01-29T04:34:18;30.10;;;17.43;;
8331;SDS011;4203;48.144;14.118;2023-01-29T04:36:53;26.97;;;17.30;;
8331;SDS011;4203;48.144;14.118;2023-01-29T04:39:30;26.73;;;16.50;;
8331;SDS011;4203;48.144;14.118;2023-01-29T04:42:05;25.93;;;16.47;;
8331;SDS011;4203;48.144;14.118;2023-01-29T04:44:39;27.13;;;15.30;;
8331;SDS011;4203;48.144;14.118;2023-01-29T04:47:15;28.43;;;15.73;;
8331;SDS011;4203;48.144;14.118;2023-01-29T04:49:50;21.60;;;13.80;;
8331;SDS011;4203;48.144;14.118;2023-01-29T04:52:32;24.13;;;14.83;;
8331;SDS011;4203;48.144;14.118;2023-01-29T04:55:08;18.43;;;11.77;;
8331;SDS011;4203;48.144;14.118;2023-01-29T04:57:42;20.43;;;12.50;;
8331;SDS011;4203;48.144;14.118;2023-01-29T05:00:15;17.40;;;11.40;;
8331;SDS011;4203;48.144;14.118;2023-01-29T05:02:45;20.80;;;12.10;;
8331;SDS011;4203;48.144;14.118;2023-01-29T05:05:15;18.40;;;11.90;;
8331;SDS011;4203;48.144;14.118;2023-01-29T05:07:45;14.93;;;11.07;;
8331;SDS011;4203;48.144;14.118;2023-01-29T05:10:15;19.07;;;11.83;;
8331;SDS011;4203;48.144;14.118;2023-01-29T05:12:46;17.20;;;10.83;;
8331;SDS011;4203;48.144;14.118;2023-01-29T05:15:18;15.60;;;10.93;;
8331;SDS011;4203;48.144;14.118;2023-01-29T05:17:48;14.00;;;10.57;;
8331;SDS011;4203;48.144;14.118;2023-01-29T05:20:26;17.70;;;11.40;;
8331;SDS011;4203;48.144;14.118;2023-01-29T05:22:55;16.60;;;11.77;;
8331;SDS011;4203;48.144;14.118;2023-01-29T05:25:23;17.77;;;11.63;;
8331;SDS011;4203;48.144;14.118;2023-01-29T05:27:52;17.13;;;11.63;;
8331;SDS011;4203;48.144;14.118;2023-01-29T05:30:28;16.40;;;11.33;;
8331;SDS011;4203;48.144;14.118;2023-01-29T05:32:55;17.90;;;12.13;;
8331;SDS011;4203;48.144;14.118;2023-01-29T05:35:24;18.83;;;11.67;;
8331;SDS011;4203;48.144;14.118;2023-01-29T05:37:52;17.73;;;12.00;;
8331;SDS011;4203;48.144;14.118;2023-01-29T05:40:20;18.30;;;12.10;;
8331;SDS011;4203;48.144;14.118;2023-01-29T05:42:47;15.63;;;11.77;;
8331;SDS011;4203;48.144;14.118;2023-01-29T05:45:15;19.57;;;13.13;;
8331;SDS011;4203;48.144;14.118;2023-01-29T05:47:43;17.03;;;12.27;;
8331;SDS011;4203;48.144;14.118;2023-01-29T05:50:11;27.70;;;22.17;;
8331;SDS011;4203;48.144;14.118;2023-01-29T05:52:41;24.03;;;19.20;;
8331;SDS011;4203;48.144;14.118;2023-01-29T05:55:08;41.50;;;32.80;;
8331;SDS011;4203;48.144;14.118;2023-01-29T05:57:36;21.73;;;16.83;;
8331;SDS011;4203;48.144;14.118;2023-01-29T06:00:05;19.30;;;13.70;;
8331;SDS011;4203;48.144;14.118;2023-01-29T06:02:33;19.37;;;13.77;;
8331;SDS011;4203;48.144;14.118;2023-01-29T06:05:01;21.30;;;15.57;;
8331;SDS011;4203;48.144;14.118;2023-01-29T06:07:28;63.67;;;41.27;;
8331;SDS011;4203;48.144;14.118;2023-01-29T06:09:56;28.77;;;22.07;;
8331;SDS011;4203;48.144;14.118;2023-01-29T06:12:23;23.70;;;17.70;;
8331;SDS011;4203;48.144;14.118;2023-01-29T06:14:52;20.07;;;14.40;;
8331;SDS011;4203;48.144;14.118;2023-01-29T06:17:19;19.27;;;13.00;;
8331;SDS011;4203;48.144;14.118;2023-01-29T06:19:46;18.90;;;13.13;;
8331;SDS011;4203;48.144;14.118;2023-01-29T06:22:14;22.33;;;15.13;;
8331;SDS011;4203;48.144;14.118;2023-01-29T06:24:41;26.07;;;19.37;;
8331;SDS011;4203;48.144;14.118;2023-01-29T06:27:11;33.07;;;22.10;;
8331;SDS011;4203;48.144;14.118;2023-01-29T06:29:38;19.33;;;14.57;;
8331;SDS011;4203;48.144;14.118;2023-01-29T06:32:06;20.57;;;14.97;;
8331;SDS011;4203;48.144;14.118;2023-01-29T06:34:33;21.27;;;14.53;;
8331;SDS011;4203;48.144;14.118;2023-01-29T06:37:00;18.63;;;12.77;;
8331;SDS011;4203;48.144;14.118;2023-01-29T06:39:27;19.03;;;12.63;;
8331;SDS011;4203;48.144;14.118;2023-01-29T06:42:03;20.67;;;13.60;;
8331;SDS011;4203;48.144;14.118;2023-01-29T06:44:31;23.17;;;13.27;;
8331;SDS011;4203;48.144;14.118;2023-01-29T06:46:59;20.60;;;13.20;;
8331;SDS011;4203;48.144;14.118;2023-01-29T06:49:26;22.20;;;12.83;;
8331;SDS011;4203;48.144;14.118;2023-01-29T06:51:54;21.33;;;14.57;;
8331;SDS011;4203;48.144;14.118;2023-01-29T06:54:21;23.70;;;16.37;;
8331;SDS011;4203;48.144;14.118;2023-01-29T06:56:48;23.70;;;16.67;;
8331;SDS011;4203;48.144;14.118;2023-01-29T06:59:15;21.60;;;14.97;;
8331;SDS011;4203;48.144;14.118;2023-01-29T07:01:44;21.20;;;14.03;;
8331;SDS011;4203;48.144;14.118;2023-01-29T07:04:11;18.70;;;13.57;;
8331;SDS011;4203;48.144;14.118;2023-01-29T07:06:38;17.93;;;12.53;;
8331;SDS011;4203;48.144;14.118;2023-01-29T07:09:05;19.00;;;12.77;;
8331;SDS011;4203;48.144;14.118;2023-01-29T07:11:33;20.23;;;13.77;;
8331;SDS011;4203;48.144;14.118;2023-01-29T07:14:01;20.17;;;13.70;;
8331;SDS011;4203;48.144;14.118;2023-01-29T07:16:29;19.10;;;13.47;;
8331;SDS011;4203;48.144;14.118;2023-01-29T07:18:57;19.63;;;12.93;;
8331;SDS011;4203;48.144;14.118;2023-01-29T07:21:25;20.20;;;13.93;;
8331;SDS011;4203;48.144;14.118;2023-01-29T07:23:52;18.50;;;12.73;;
8331;SDS011;4203;48.144;14.118;2023-01-29T07:26:19;20.73;;;12.23;;
8331;SDS011;4203;48.144;14.118;2023-01-29T07:28:46;17.87;;;12.53;;
8331;SDS011;4203;48.144;14.118;2023-01-29T07:31:13;16.53;;;12.20;;
8331;SDS011;4203;48.144;14.118;2023-01-29T07:33:41;16.40;;;11.93;;
8331;SDS011;4203;48.144;14.118;2023-01-29T07:36:11;15.67;;;12.17;;
8331;SDS011;4203;48.144;14.118;2023-01-29T07:38:38;17.80;;;12.47;;
8331;SDS011;4203;48.144;14.118;2023-01-29T07:41:06;15.07;;;11.57;;
8331;SDS011;4203;48.144;14.118;2023-01-29T07:43:33;17.47;;;12.53;;
8331;SDS011;4203;48.144;14.118;2023-01-29T07:46:00;16.83;;;11.47;;
8331;SDS011;4203;48.144;14.118;2023-01-29T07:48:28;20.77;;;12.90;;
8331;SDS011;4203;48.144;14.118;2023-01-29T07:50:55;15.77;;;11.23;;
8331;SDS011;4203;48.144;14.118;2023-01-29T07:53:25;18.37;;;11.73;;
8331;SDS011;4203;48.144;14.118;2023-01-29T07:55:54;16.57;;;11.93;;
8331;SDS011;4203;48.144;14.118;2023-01-29T07:58:21;15.20;;;10.60;;
8331;SDS011;4203;48.144;14.118;2023-01-29T08:00:49;15.83;;;11.50;;
8331;SDS011;4203;48.144;14.118;2023-01-29T08:03:16;14.87;;;11.23;;
8331;SDS011;4203;48.144;14.118;2023-01-29T08:05:45;14.77;;;10.87;;
8331;SDS011;4203;48.144;14.118;2023-01-29T08:08:12;16.10;;;11.30;;
8331;SDS011;4203;48.144;14.118;2023-01-29T08:10:41;15.77;;;11.60;;
8331;SDS011;4203;48.144;14.118;2023-01-29T08:13:09;15.40;;;10.60;;
8331;SDS011;4203;48.144;14.118;2023-01-29T08:15:36;15.57;;;11.33;;
8331;SDS011;4203;48.144;14.118;2023-01-29T08:18:03;16.37;;;11.53;;
8331;SDS011;4203;48.144;14.118;2023-01-29T08:20:30;13.90;;;10.47;;
8331;SDS011;4203;48.144;14.118;2023-01-29T08:22:58;13.47;;;10.37;;
8331;SDS011;4203;48.144;14.118;2023-01-29T08:25:26;15.10;;;10.40;;
8331;SDS011;4203;48.144;14.118;2023-01-29T08:27:56;15.13;;;10.77;;
8331;SDS011;4203;48.144;14.118;2023-01-29T08:30:24;14.67;;;10.10;;
8331;SDS011;4203;48.144;14.118;2023-01-29T08:32:52;13.30;;;9.83;;
8331;SDS011;4203;48.144;14.118;2023-01-29T08:35:19;14.03;;;11.30;;
8331;SDS011;4203;48.144;14.118;2023-01-29T08:37:51;16.53;;;11.40;;
8331;SDS011;4203;48.144;14.118;2023-01-29T08:40:19;14.00;;;9.73;;
8331;SDS011;4203;48.144;14.118;2023-01-29T08:42:47;14.63;;;10.43;;
8331;SDS011;4203;48.144;14.118;2023-01-29T08:45:15;13.47;;;10.10;;
8331;SDS011;4203;48.144;14.118;2023-01-29T08:47:46;14.23;;;9.90;;
8331;SDS011;4203;48.144;14.118;2023-01-29T08:50:14;13.53;;;10.23;;
8331;SDS011;4203;48.144;14.118;2023-01-29T08:52:42;13.63;;;10.23;;
8331;SDS011;4203;48.144;14.118;2023-01-29T08:55:10;14.13;;;10.40;;
8331;SDS011;4203;48.144;14.118;2023-01-29T08:57:38;13.20;;;10.23;;
8331;SDS011;4203;48.144;14.118;2023-01-29T09:00:05;14.37;;;10.00;;
8331;SDS011;4203;48.144;14.118;2023-01-29T09:02:36;13.13;;;9.90;;
8331;SDS011;4203;48.144;14.118;2023-01-29T09:05:03;13.07;;;9.77;;
8331;SDS011;4203;48.144;14.118;2023-01-29T09:07:31;14.40;;;9.60;;
8331;SDS011;4203;48.144;14.118;2023-01-29T09:09:58;13.20;;;9.70;;
8331;SDS011;4203;48.144;14.118;2023-01-29T09:12:25;12.77;;;8.33;;
8331;SDS011;4203;48.144;14.118;2023-01-29T09:14:52;10.30;;;8.90;;
8331;SDS011;4203;48.144;14.118;2023-01-29T09:17:20;11.07;;;8.13;;
8331;SDS011;4203;48.144;14.118;2023-01-29T09:19:48;10.03;;;8.20;;
8331;SDS011;4203;48.144;14.118;2023-01-29T09:22:17;12.10;;;8.63;;
8331;SDS011;4203;48.144;14.118;2023-01-29T09:24:44;13.37;;;8.20;;
8331;SDS011;4203;48.144;14.118;2023-01-29T09:27:11;8.90;;;6.83;;
8331;SDS011;4203;48.144;14.118;2023-01-29T09:29:38;10.00;;;7.07;;
8331;SDS011;4203;48.144;14.118;2023-01-29T09:32:05;7.53;;;6.70;;
8331;SDS011;4203;48.144;14.118;2023-01-29T09:34:33;10.67;;;7.07;;
8331;SDS011;4203;48.144;14.118;2023-01-29T09:37:01;8.67;;;6.83;;
8331;SDS011;4203;48.144;14.118;2023-01-29T09:39:28;9.43;;;6.97;;
8331;SDS011;4203;48.144;14.118;2023-01-29T09:41:57;9.07;;;6.57;;
8331;SDS011;4203;48.144;14.118;2023-01-29T09:44:32;6.73;;;6.00;;
8331;SDS011;4203;48.144;14.118;2023-01-29T09:47:13;7.00;;;6.23;;
8331;SDS011;4203;48.144;14.118;2023-01-29T09:49:44;7.90;;;6.50;;
8331;SDS011;4203;48.144;14.118;2023-01-29T09:52:17;8.77;;;6.30;;
8331;SDS011;4203;48.144;14.118;2023-01-29T09:54:49;7.70;;;6.53;;
8331;SDS011;4203;48.144;14.118;2023-01-29T09:57:26;8.47;;;6.47;;
8331;SDS011;4203;48.144;14.118;2023-01-29T09:59:58;7.90;;;6.33;;
8331;SDS011;4203;48.144;14.118;2023-01-29T10:02:37;8.30;;;5.70;;
8331;SDS011;4203;48.144;14.118;2023-01-29T10:05:23;7.03;;;6.03;;
8331;SDS011;4203;48.144;14.118;2023-01-29T10:10:58;8.80;;;6.70;;
8331;SDS011;4203;48.144;14.118;2023-01-29T10:13:36;8.17;;;6.33;;
8331;SDS011;4203;48.144;14.118;2023-01-29T10:16:16;7.77;;;5.97;;
8331;SDS011;4203;48.144;14.118;2023-01-29T10:18:59;8.67;;;6.40;;
8331;SDS011;4203;48.144;14.118;2023-01-29T10:21:44;7.17;;;5.97;;
8331;SDS011;4203;48.144;14.118;2023-01-29T10:24:30;7.47;;;5.83;;
8331;SDS011;4203;48.144;14.118;2023-01-29T10:27:02;6.70;;;5.73;;
8331;SDS011;4203;48.144;14.118;2023-01-29T10:29:38;7.90;;;6.37;;
8331;SDS011;4203;48.144;14.118;2023-01-29T10:32:07;8.20;;;6.40;;
8331;SDS011;4203;48.144;14.118;2023-01-29T10:34:41;7.57;;;6.47;;
8331;SDS011;4203;48.144;14.118;2023-01-29T10:37:15;7.67;;;6.40;;
8331;SDS011;4203;48.144;14.118;2023-01-29T10:39:47;7.03;;;5.70;;
8331;SDS011;4203;48.144;14.118;2023-01-29T10:42:16;6.80;;;5.73;;
8331;SDS011;4203;48.144;14.118;2023-01-29T10:44:53;6.77;;;6.07;;
8331;SDS011;4203;48.144;14.118;2023-01-29T10:47:48;7.30;;;5.53;;
8331;SDS011;4203;48.144;14.118;2023-01-29T10:50:40;6.70;;;5.80;;
8331;SDS011;4203;48.144;14.118;2023-01-29T10:53:17;7.30;;;6.03;;
8331;SDS011;4203;48.144;14.118;2023-01-29T10:55:56;6.97;;;6.27;;
8331;SDS011;4203;48.144;14.118;2023-01-29T10:58:33;6.53;;;5.83;;
8331;SDS011;4203;48.144;14.118;2023-01-29T11:01:05;6.53;;;5.83;;
8331;SDS011;4203;48.144;14.118;2023-01-29T11:03:33;7.83;;;6.27;;
8331;SDS011;4203;48.144;14.118;2023-01-29T11:06:03;6.53;;;5.90;;
8331;SDS011;4203;48.144;14.118;2023-01-29T11:08:40;6.80;;;5.40;;
8331;SDS011;4203;48.144;14.118;2023-01-29T11:11:13;7.63;;;6.77;;
8331;SDS011;4203;48.144;14.118;2023-01-29T11:13:42;6.43;;;5.77;;
8331;SDS011;4203;48.144;14.118;2023-01-29T11:16:14;7.33;;;6.27;;
8331;SDS011;4203;48.144;14.118;2023-01-29T11:18:48;6.80;;;5.73;;
8331;SDS011;4203;48.144;14.118;2023-01-29T11:21:17;7.77;;;6.20;;
8331;SDS011;4203;48.144;14.118;2023-01-29T11:23:44;7.27;;;6.50;;
8331;SDS011;4203;48.144;14.118;2023-01-29T11:26:16;6.03;;;5.43;;
8331;SDS011;4203;48.144;14.118;2023-01-29T11:28:47;6.80;;;5.97;;
8331;SDS011;4203;48.144;14.118;2023-01-29T11:31:16;6.27;;;5.67;;
8331;SDS011;4203;48.144;14.118;2023-01-29T11:33:47;8.30;;;6.53;;
8331;SDS011;4203;48.144;14.118;2023-01-29T11:39:16;10.73;;;7.70;;
8331;SDS011;4203;48.144;14.118;2023-01-29T11:41:51;8.73;;;6.60;;
8331;SDS011;4203;48.144;14.118;2023-01-29T11:44:29;7.60;;;6.40;;
8331;SDS011;4203;48.144;14.118;2023-01-29T11:47:06;8.20;;;6.57;;
8331;SDS011;4203;48.144;14.118;2023-01-29T11:49:44;7.43;;;6.63;;
8331;SDS011;4203;48.144;14.118;2023-01-29T11:52:14;8.33;;;6.60;;
8331;SDS011;4203;48.144;14.118;2023-01-29T11:54:44;7.70;;;6.60;;
8331;SDS011;4203;48.144;14.118;2023-01-29T11:57:25;7.27;;;6.17;;
8331;SDS011;4203;48.144;14.118;2023-01-29T11:59:55;8.57;;;7.03;;
8331;SDS011;4203;48.144;14.118;2023-01-29T12:02:28;8.23;;;6.73;;
8331;SDS011;4203;48.144;14.118;2023-01-29T12:05:01;8.70;;;7.30;;
8331;SDS011;4203;48.144;14.118;2023-01-29T12:07:31;8.97;;;6.77;;
8331;SDS011;4203;48.144;14.118;2023-01-29T12:09:59;7.83;;;6.47;;
8331;SDS011;4203;48.144;14.118;2023-01-29T12:12:41;8.27;;;6.90;;
8331;SDS011;4203;48.144;14.118;2023-01-29T12:15:16;11.20;;;7.00;;
8331;SDS011;4203;48.144;14.118;2023-01-29T12:17:50;8.37;;;6.60;;
8331;SDS011;4203;48.144;14.118;2023-01-29T12:20:24;9.13;;;7.23;;
8331;SDS011;4203;48.144;14.118;2023-01-29T12:22:58;7.60;;;6.80;;
8331;SDS011;4203;48.144;14.118;2023-01-29T12:25:34;8.23;;;7.00;;
8331;SDS011;4203;48.144;14.118;2023-01-29T12:28:11;7.10;;;6.40;;
8331;SDS011;4203;48.144;14.118;2023-01-29T12:31:01;7.60;;;6.80;;
8331;SDS011;4203;48.144;14.118;2023-01-29T12:33:40;8.43;;;7.33;;
8331;SDS011;4203;48.144;14.118;2023-01-29T12:36:16;7.50;;;6.37;;
8331;SDS011;4203;48.144;14.118;2023-01-29T12:38:47;10.13;;;7.10;;
8331;SDS011;4203;48.144;14.118;2023-01-29T12:41:22;8.77;;;6.93;;
8331;SDS011;4203;48.144;14.118;2023-01-29T12:43:57;8.80;;;7.77;;
8331;SDS011;4203;48.144;14.118;2023-01-29T12:46:30;11.77;;;9.17;;
8331;SDS011;4203;48.144;14.118;2023-01-29T12:49:03;15.83;;;10.57;;
8331;SDS011;4203;48.144;14.118;2023-01-29T12:51:39;16.63;;;12.23;;
8331;SDS011;4203;48.144;14.118;2023-01-29T12:54:15;17.27;;;11.90;;
8331;SDS011;4203;48.144;14.118;2023-01-29T12:56:49;19.53;;;12.60;;
8331;SDS011;4203;48.144;14.118;2023-01-29T12:59:23;25.83;;;15.20;;
8331;SDS011;4203;48.144;14.118;2023-01-29T13:01:54;15.83;;;11.00;;
8331;SDS011;4203;48.144;14.118;2023-01-29T13:04:29;10.87;;;8.60;;
8331;SDS011;4203;48.144;14.118;2023-01-29T13:07:05;8.77;;;7.73;;
8331;SDS011;4203;48.144;14.118;2023-01-29T13:09:38;10.57;;;8.00;;
8331;SDS011;4203;48.144;14.118;2023-01-29T13:12:10;10.53;;;8.37;;
8331;SDS011;4203;48.144;14.118;2023-01-29T13:14:43;10.60;;;8.87;;
8331;SDS011;4203;48.144;14.118;2023-01-29T13:17:15;10.17;;;7.67;;
8331;SDS011;4203;48.144;14.118;2023-01-29T13:19:48;9.40;;;7.87;;
8331;SDS011;4203;48.144;14.118;2023-01-29T13:22:19;10.77;;;7.97;;
8331;SDS011;4203;48.144;14.118;2023-01-29T13:24:49;10.60;;;8.20;;
8331;SDS011;4203;48.144;14.118;2023-01-29T13:27:21;10.10;;;8.17;;
8331;SDS011;4203;48.144;14.118;2023-01-29T13:29:52;10.53;;;8.57;;
8331;SDS011;4203;48.144;14.118;2023-01-29T13:32:22;10.57;;;8.43;;
8331;SDS011;4203;48.144;14.118;2023-01-29T13:34:52;10.30;;;8.90;;
8331;SDS011;4203;48.144;14.118;2023-01-29T13:37:24;10.70;;;8.47;;
8331;SDS011;4203;48.144;14.118;2023-01-29T13:39:57;10.97;;;8.43;;
8331;SDS011;4203;48.144;14.118;2023-01-29T13:42:32;9.90;;;7.90;;
8331;SDS011;4203;48.144;14.118;2023-01-29T13:45:07;10.77;;;8.53;;
8331;SDS011;4203;48.144;14.118;2023-01-29T13:47:44;11.27;;;7.97;;
8331;SDS011;4203;48.144;14.118;2023-01-29T13:50:18;10.10;;;7.60;;
8331;SDS011;4203;48.144;14.118;2023-01-29T13:52:53;10.30;;;7.97;;
8331;SDS011;4203;48.144;14.118;2023-01-29T13:55:24;10.73;;;7.80;;
8331;SDS011;4203;48.144;14.118;2023-01-29T13:57:56;10.93;;;8.20;;
8331;SDS011;4203;48.144;14.118;2023-01-29T14:12:34;9.60;;;8.00;;
8331;SDS011;4203;48.144;14.118;2023-01-29T14:15:14;11.87;;;8.10;;
8331;SDS011;4203;48.144;14.118;2023-01-29T14:20:58;10.37;;;8.10;;
8331;SDS011;4203;48.144;14.118;2023-01-29T14:23:28;11.20;;;7.93;;
8331;SDS011;4203;48.144;14.118;2023-01-29T14:26:24;9.50;;;8.30;;
8331;SDS011;4203;48.144;14.118;2023-01-29T14:28:56;12.60;;;8.33;;
8331;SDS011;4203;48.144;14.118;2023-01-29T14:31:39;11.47;;;8.20;;
8331;SDS011;4203;48.144;14.118;2023-01-29T14:34:26;10.83;;;8.30;;
8331;SDS011;4203;48.144;14.118;2023-01-29T14:39:58;10.73;;;8.57;;
8331;SDS011;4203;48.144;14.118;2023-01-29T14:42:44;12.90;;;8.93;;
8331;SDS011;4203;48.144;14.118;2023-01-29T14:45:44;9.40;;;7.97;;
8331;SDS011;4203;48.144;14.118;2023-01-29T14:48:19;10.57;;;8.47;;
8331;SDS011;4203;48.144;14.118;2023-01-29T14:51:06;10.07;;;8.07;;
8331;SDS011;4203;48.144;14.118;2023-01-29T14:53:44;9.83;;;8.07;;
8331;SDS011;4203;48.144;14.118;2023-01-29T14:56:18;10.40;;;8.27;;
8331;SDS011;4203;48.144;14.118;2023-01-29T14:58:52;11.27;;;8.90;;
8331;SDS011;4203;48.144;14.118;2023-01-29T15:01:25;9.43;;;8.10;;
8331;SDS011;4203;48.144;14.118;2023-01-29T15:04:01;13.97;;;8.30;;
8331;SDS011;4203;48.144;14.118;2023-01-29T15:06:31;11.43;;;8.93;;
8331;SDS011;4203;48.144;14.118;2023-01-29T15:09:11;11.70;;;8.60;;
8331;SDS011;4203;48.144;14.118;2023-01-29T15:11:45;10.23;;;8.03;;
8331;SDS011;4203;48.144;14.118;2023-01-29T15:14:16;11.97;;;9.07;;
8331;SDS011;4203;48.144;14.118;2023-01-29T15:16:52;12.03;;;8.57;;
8331;SDS011;4203;48.144;14.118;2023-01-29T15:19:26;12.47;;;9.13;;
8331;SDS011;4203;48.144;14.118;2023-01-29T15:22:00;11.80;;;8.53;;
8331;SDS011;4203;48.144;14.118;2023-01-29T15:24:30;9.77;;;8.30;;
8331;SDS011;4203;48.144;14.118;2023-01-29T15:26:58;9.87;;;8.40;;
8331;SDS011;4203;48.144;14.118;2023-01-29T15:29:25;11.87;;;8.80;;
8331;SDS011;4203;48.144;14.118;2023-01-29T15:31:54;12.90;;;9.30;;
8331;SDS011;4203;48.144;14.118;2023-01-29T15:34:22;10.60;;;8.50;;
8331;SDS011;4203;48.144;14.118;2023-01-29T15:36:49;12.23;;;9.00;;